• Join FlightAware (Why Join?)
  • Login
  • US Flag 
10:17AM EST


 

Airport Tracker/Info


-or-


 

Live Flight TrackerFlight Track Log ✈ EJA831 ✈ 28-Apr-2013 ✈ KHPN - KRIC

Flight Track Log - Related Links

Times and Time Zones

All times are in EDT time to prevent confusion due to time zone crossing. See the EJA831 flight status page for this flight to view local times or setup timezone preferences in your user account.

Time Position Orientation Groundspeed Altitude Reporting Facility
EDT Latitude Longitude Course Direction KTS MPH feet Rate Location/Type
08:26AM 41.0500 -73.7333 194° South 202 232 4,100  Level New York TRACON
08:27AM 41.0333 -73.8333 258° West 269 310 8,400 3,180 Climbing New York TRACON
08:28AM 40.9667 -73.8667 201° Southwest 306 352 10,900 1,620 Climbing New York TRACON
08:29AM 40.9000 -73.9167 210° Southwest 327 376 11,500 600 Climbing New York TRACON
08:30AM 40.8000 -73.9667 201° Southwest 335 386 12,100 300 Climbing New York TRACON
08:31AM 40.7167 -74.0167 204° Southwest 341 392 12,100  Level New York TRACON
08:32AM 40.4825 -73.9947 194° South  Level FlightAware Approximate
08:32AM 40.6500 -74.1167 229° Southwest 333 383 12,100  Level New York TRACON
08:33AM 40.5667 -74.1333 189° South 343 395 13,400 1,800 Climbing New York TRACON
08:35AM 40.3897 -74.1717 189° South 379 436 17,100 1,980 Climbing New York Center
08:36AM 40.2892 -74.1911 188° South 379 436 19,100 2,040 Climbing New York Center
08:37AM 40.1781 -74.2156 190° South 386 444 21,200 1,680 Climbing New York Center
08:39AM 40.0186 -74.2506 190° South 410 472 23,500 1,500 Climbing Washington Center
08:40AM 39.9214 -74.3308 212° Southwest 408 470 25,100 1,500 Climbing Washington Center
08:41AM 39.8306 -74.4189 217° Southwest 408 470 26,600 1,380 Climbing Washington Center
08:42AM 39.7483 -74.5228 224° Southwest 413 475 27,900 660 Climbing Washington Center
08:43AM 39.6681 -74.6292 226° Southwest 413 475 28,000  Climbing Washington Center
08:44AM 39.5856 -74.7381 226° Southwest 418 481 28,000  Level Washington Center
08:45AM 39.5050 -74.8464 226° Southwest 418 481 28,000  Level Washington Center
08:46AM 39.4242 -74.9522 225° Southwest 418 481 28,000  Level Washington Center
08:47AM 39.3436 -75.0575 225° Southwest 418 481 28,000  Level Washington Center
08:48AM 39.2417 -75.1281 208° Southwest 418 481 28,000  Level Washington Center
08:49AM 39.1272 -75.1850 201° Southwest 418 481 28,000 -180 Level Washington Center
08:50AM 39.0128 -75.2336 198° South 430 495 27,700 -840 Descending Washington Center
08:51AM 38.8983 -75.2850 199° South 436 502 26,400 -1,260 Descending Washington Center
08:52AM 38.7878 -75.3281 197° South 436 502 25,200 -1,200 Descending Washington Center
08:53AM 38.6775 -75.3736 198° South 425 489 24,100 -660 Descending Washington Center
08:54AM 38.5711 -75.4192 199° South 420 483 24,000 -60 Descending Washington Center
08:55AM 38.4608 -75.4617 197° South 420 483 24,000 -660 Level Washington Center
08:56AM 38.3692 -75.5333 212° Southwest 393 452 22,700 -1,500 Descending Washington Center
08:57AM 38.3086 -75.6578 238° Southwest 381 438 21,000 -1,680 Descending Washington Center
08:58AM 38.2606 -75.7717 242° Southwest 374 430 19,300 -1,620 Descending Washington Center
08:59AM 38.2144 -75.8850 243° Southwest 374 430 17,900 -1,620 Descending Washington Center
09:00AM 38.1661 -75.9931 240° Southwest 368 423 16,200 -960 Descending Washington Center
09:01AM 38.1200 -76.1039 242° Southwest 362 417 16,000 -120 Descending Washington Center
09:02AM 38.0714 -76.2169 241° Southwest 362 417 16,000 -120 Level Washington Center
09:03AM 38.0228 -76.3219 240° Southwest 362 417 15,800 -1,020 Descending Washington Center
09:04AM 37.9700 -76.4242 237° Southwest 357 411 14,000 -1,680 Descending Washington Center
09:05AM 37.9256 -76.5106 237° Southwest 346 398 12,500 -1,620 Descending Washington Center
09:06AM 37.8769 -76.6072 238° Southwest 334 384 10,900 -1,260 Descending Washington Center
09:07AM 37.8303 -76.6986 237° Southwest 328 377 10,000 -900 Descending Washington Center
09:08AM 37.7856 -76.7822 236° Southwest 311 358 9,100 -1,380 Descending Washington Center
09:09AM 37.7597 -76.8711 250° West 286 329 7,300 -1,800 Descending Washington Center
09:10AM 37.7317 -76.9625 249° West 275 316 5,500 -1,740 Descending Washington Center
09:11AM 37.7036 -77.0486 248° West 275 316 3,800 -1,320 Descending Washington Center
09:12AM 37.6775 -77.1319 248° West 270 311 3,000 -420 Descending Washington Center
09:13AM 37.6553 -77.2181 252° West 270 311 3,000 -660 Level Washington Center
09:15AM 37.5833 -77.3500 235° Southwest 178 205 1,100 -720 Descending Potomac TRACON
09:16AM 37.5500 -77.3500 180° South 146 168 900 -480 Descending Potomac TRACON
09:17AM 37.5167 -77.3333 158° South 109 125 300 -720 Descending Potomac TRACON